createdAt,value
2022-11-04T00:05:01.002Z,20.60
2022-11-04T00:10:02.885Z,19.60
2022-11-04T00:15:25.558Z,17.50
2022-11-04T00:20:46.115Z,16.00
2022-11-04T00:26:06.520Z,15.20
2022-11-04T00:31:28.678Z,20.30
2022-11-04T00:36:30.500Z,14.00
2022-11-04T00:41:32.392Z,12.90
2022-11-04T00:46:34.837Z,12.70
2022-11-04T00:51:36.700Z,15.30
2022-11-04T00:56:39.575Z,15.60
2022-11-04T01:01:42.218Z,15.00
2022-11-04T01:06:44.695Z,12.40
2022-11-04T01:11:46.648Z,13.20
2022-11-04T01:16:52.026Z,15.70
2022-11-04T01:21:53.908Z,12.20
2022-11-04T01:26:55.855Z,11.20
2022-11-04T01:31:57.776Z,15.80
2022-11-04T01:36:59.627Z,12.20
2022-11-04T01:42:01.617Z,15.10
2022-11-04T01:47:04.618Z,12.40
2022-11-04T01:52:15.410Z,10.20
2022-11-04T01:57:25.273Z,11.20
2022-11-04T02:02:27.357Z,15.70
2022-11-04T02:07:29.949Z,11.10
2022-11-04T02:12:50.133Z,11.40
2022-11-04T02:23:48.800Z,12.90
2022-11-04T02:29:18.842Z,13.70
2022-11-04T02:34:26.010Z,15.10
2022-11-04T02:39:51.344Z,15.50
2022-11-04T02:45:21.937Z,13.90
2022-11-04T02:50:33.675Z,11.40
2022-11-04T02:55:43.303Z,14.00
2022-11-04T03:00:47.097Z,16.30
2022-11-04T03:05:52.709Z,13.30
2022-11-04T03:10:59.427Z,12.30
2022-11-04T03:16:09.449Z,15.90
2022-11-04T03:21:15.529Z,12.50
2022-11-04T03:26:32.710Z,11.00
2022-11-04T03:31:54.527Z,16.50
2022-11-04T03:36:57.312Z,11.70
2022-11-04T03:42:20.338Z,13.50
2022-11-04T03:47:25.982Z,14.30
2022-11-04T03:52:27.866Z,14.40
2022-11-04T03:57:51.240Z,15.90
2022-11-04T04:03:06.734Z,16.00
2022-11-04T04:08:34.607Z,16.20
2022-11-04T04:13:36.551Z,12.90
2022-11-04T04:18:55.785Z,14.30
2022-11-04T04:24:24.678Z,13.90
2022-11-04T04:29:29.513Z,15.80
2022-11-04T04:34:33.557Z,13.40
2022-11-04T04:40:00.839Z,14.80
2022-11-04T04:45:05.580Z,11.80
2022-11-04T04:50:09.195Z,13.20
2022-11-04T04:55:12.535Z,14.20
2022-11-04T05:00:19.986Z,12.70
2022-11-04T05:05:21.976Z,13.10
2022-11-04T05:10:26.089Z,17.10
2022-11-04T05:15:31.406Z,18.50
2022-11-04T05:20:34.562Z,17.90
2022-11-04T05:25:36.544Z,16.20
2022-11-04T05:30:38.473Z,19.60
2022-11-04T05:35:40.443Z,17.00
2022-11-04T05:40:42.341Z,22.50
2022-11-04T05:45:44.144Z,22.70
2022-11-04T05:50:45.987Z,26.00
2022-11-04T05:55:47.817Z,45.20
2022-11-04T06:00:49.679Z,46.10
2022-11-04T06:05:51.510Z,37.80
2022-11-04T06:10:53.411Z,53.70
2022-11-04T06:15:55.263Z,32.10
2022-11-04T06:21:15.377Z,17.00
2022-11-04T06:26:18.313Z,19.80
2022-11-04T06:31:20.626Z,22.00
2022-11-04T06:36:22.485Z,15.00
2022-11-04T06:41:25.113Z,20.10
2022-11-04T06:46:40.256Z,16.80
2022-11-04T06:51:42.162Z,16.40
2022-11-04T06:56:45.075Z,16.60
2022-11-04T07:01:49.316Z,19.90
2022-11-04T07:06:51.302Z,16.20
2022-11-04T07:11:53.104Z,17.90
2022-11-04T07:16:54.926Z,17.10
2022-11-04T07:21:58.019Z,21.00
2022-11-04T07:32:07.601Z,13.50
2022-11-04T07:37:09.851Z,14.30
2022-11-04T07:42:11.743Z,24.60
2022-11-04T07:47:14.601Z,18.40
2022-11-04T07:52:16.830Z,19.90
2022-11-04T07:57:18.681Z,15.50
2022-11-04T08:02:25.786Z,19.00
2022-11-04T08:07:29.561Z,19.20
2022-11-04T08:12:32.495Z,16.40
2022-11-04T08:17:34.369Z,17.50
2022-11-04T08:22:36.555Z,11.10
2022-11-04T08:27:38.368Z,13.30
2022-11-04T08:32:40.312Z,14.40
2022-11-04T08:37:42.197Z,12.50
2022-11-04T08:42:44.013Z,12.30
2022-11-04T08:47:45.818Z,12.40
2022-11-04T08:52:48.257Z,11.90
2022-11-04T08:57:51.288Z,13.90
2022-11-04T09:02:53.187Z,12.40
2022-11-04T09:07:55.672Z,11.70
2022-11-04T09:12:57.570Z,12.50
2022-11-04T09:17:59.530Z,9.50
2022-11-04T09:23:01.564Z,12.70
2022-11-04T09:28:04.783Z,16.70
2022-11-04T09:33:06.796Z,11.40
2022-11-04T09:38:08.964Z,12.00
2022-11-04T09:43:39.730Z,10.30
2022-11-04T09:48:53.808Z,9.70
2022-11-04T09:54:02.832Z,13.10
2022-11-04T09:59:06.445Z,10.40
2022-11-04T10:04:33.358Z,14.10
2022-11-04T10:09:43.380Z,10.60
2022-11-04T10:20:18.072Z,16.10
2022-11-04T10:25:28.179Z,13.40
2022-11-04T10:35:42.803Z,12.20
2022-11-04T10:40:51.333Z,10.50
2022-11-04T10:46:22.659Z,19.60
2022-11-04T10:51:24.776Z,11.20
2022-11-04T10:56:42.600Z,16.10
2022-11-04T11:01:56.805Z,12.60
2022-11-04T11:07:00.594Z,17.30
2022-11-04T11:12:44.122Z,11.70
2022-11-04T11:17:34.488Z,13.50
2022-11-04T11:22:41.704Z,13.60
2022-11-04T11:27:49.938Z,15.30
2022-11-04T11:33:01.397Z,10.10
2022-11-04T11:38:06.055Z,16.20
2022-11-04T11:43:21.320Z,11.30
2022-11-04T11:48:29.978Z,13.60
2022-11-04T11:53:34.473Z,17.00
2022-11-04T12:09:42.077Z,11.30
2022-11-04T12:15:07.081Z,15.20
2022-11-04T12:21:00.115Z,15.70
2022-11-04T12:26:20.256Z,10.80
2022-11-04T12:31:45.363Z,14.20
2022-11-04T12:37:01.928Z,18.90
2022-11-04T12:42:20.527Z,13.60
2022-11-04T12:47:38.828Z,12.30
2022-11-04T12:52:54.264Z,13.60
2022-11-04T12:58:17.559Z,17.20
2022-11-04T13:03:30.320Z,12.10
2022-11-04T13:08:41.981Z,12.00
2022-11-04T13:13:44.106Z,13.70
2022-11-04T13:18:48.026Z,16.00
2022-11-04T13:23:58.144Z,14.60
2022-11-04T13:29:09.121Z,92.80
2022-11-04T13:34:48.051Z,20.10
2022-11-04T13:39:57.718Z,14.60
2022-11-04T13:45:14.955Z,19.40
2022-11-04T13:50:37.016Z,14.00
2022-11-04T13:55:50.393Z,14.40
2022-11-04T14:01:14.010Z,21.90
2022-11-04T14:06:16.040Z,20.00
2022-11-04T14:11:17.843Z,13.50
2022-11-04T14:16:25.485Z,16.90
2022-11-04T14:21:29.524Z,29.50
2022-11-04T14:26:48.616Z,25.00
2022-11-04T14:31:53.183Z,17.50
2022-11-04T14:37:05.455Z,14.90
2022-11-04T14:42:14.004Z,17.90
2022-11-04T14:47:22.055Z,18.50
2022-11-04T14:52:35.165Z,22.40
2022-11-04T14:57:42.456Z,23.30
2022-11-04T15:02:44.350Z,18.40
2022-11-04T15:07:46.239Z,18.60
2022-11-04T15:12:52.036Z,17.80
2022-11-04T15:18:01.843Z,16.30
2022-11-04T15:23:06.859Z,17.20
2022-11-04T15:28:18.061Z,22.50
2022-11-04T15:33:20.012Z,23.30
2022-11-04T15:38:24.324Z,13.30
2022-11-04T15:43:26.234Z,24.40
2022-11-04T15:48:33.818Z,21.70
2022-11-04T15:53:50.573Z,28.20
2022-11-04T15:58:54.536Z,31.00
2022-11-04T16:04:00.470Z,34.90
2022-11-04T16:09:25.940Z,35.90
2022-11-04T16:14:30.169Z,36.80
2022-11-04T16:19:32.491Z,41.90
2022-11-04T16:24:37.987Z,39.60
2022-11-04T16:29:45.213Z,57.10
2022-11-04T16:34:52.362Z,53.20
2022-11-04T16:39:54.403Z,51.80
2022-11-04T16:45:02.640Z,54.30
2022-11-04T16:50:13.225Z,60.10
2022-11-04T16:55:15.941Z,56.50
2022-11-04T17:00:20.963Z,52.80
2022-11-04T17:05:23.106Z,50.40
2022-11-04T17:10:27.965Z,52.90
2022-11-04T17:15:29.783Z,43.50
2022-11-04T17:20:32.043Z,55.30
2022-11-04T17:25:33.897Z,53.50
2022-11-04T17:30:36.077Z,45.90
2022-11-04T17:35:38.419Z,50.70
2022-11-04T17:40:59.182Z,48.10
2022-11-04T17:46:20.956Z,40.30
2022-11-04T17:51:23.114Z,48.20
2022-11-04T17:56:25.644Z,49.90
2022-11-04T18:01:28.148Z,68.60
2022-11-04T18:06:32.593Z,69.20
2022-11-04T18:11:53.123Z,63.10
2022-11-04T18:16:55.110Z,61.40
2022-11-04T18:21:57.407Z,71.80
2022-11-04T18:26:59.862Z,62.80
2022-11-04T18:32:01.778Z,60.30
2022-11-04T18:37:03.794Z,66.50
2022-11-04T18:42:05.702Z,64.80
2022-11-04T18:47:07.495Z,60.40
2022-11-04T18:52:09.330Z,67.30
2022-11-04T18:57:12.187Z,71.90
2022-11-04T19:02:19.839Z,69.20
2022-11-04T19:07:21.665Z,63.60
2022-11-04T19:12:42.100Z,59.90
2022-11-04T19:17:44.035Z,61.30
2022-11-04T19:22:46.129Z,51.90
2022-11-04T19:28:00.069Z,59.90
2022-11-04T19:33:10.886Z,54.10
2022-11-04T19:38:12.986Z,52.50
2022-11-04T19:43:15.199Z,44.80
2022-11-04T19:48:18.976Z,47.00
2022-11-04T19:53:21.134Z,38.90
2022-11-04T19:58:23.401Z,46.10
2022-11-04T20:03:25.223Z,42.70
2022-11-04T20:08:27.230Z,33.80
2022-11-04T20:13:44.428Z,31.80
2022-11-04T20:18:50.697Z,28.30
2022-11-04T20:23:57.613Z,25.60
2022-11-04T20:29:00.448Z,29.10
2022-11-04T20:34:05.114Z,39.10
2022-11-04T20:39:18.329Z,43.80
2022-11-04T20:44:20.295Z,40.60
2022-11-04T20:49:22.283Z,41.40
2022-11-04T20:54:24.187Z,36.30
2022-11-04T20:59:27.617Z,38.00
2022-11-04T21:04:34.799Z,33.70
2022-11-04T21:09:37.955Z,38.00
2022-11-04T21:14:39.827Z,42.80
2022-11-04T21:19:41.730Z,39.20
2022-11-04T21:24:43.569Z,37.10
2022-11-04T21:29:45.578Z,40.80
2022-11-04T21:34:47.430Z,39.30
2022-11-04T21:39:49.240Z,31.10
2022-11-04T21:44:51.049Z,27.20
2022-11-04T21:49:52.864Z,35.70
2022-11-04T21:54:54.633Z,31.80
2022-11-04T21:59:56.428Z,35.60
2022-11-04T22:04:58.242Z,30.00
2022-11-04T22:10:00.095Z,31.80
2022-11-04T22:15:09.094Z,24.90
2022-11-04T22:20:11.293Z,15.50
2022-11-04T22:25:13.159Z,11.00
2022-11-04T22:30:15.009Z,6.80
2022-11-04T22:35:17.079Z,8.70
2022-11-04T22:40:18.997Z,5.50
2022-11-04T22:45:20.834Z,5.00
2022-11-04T22:50:23.098Z,3.50
2022-11-04T22:55:24.886Z,5.50
2022-11-04T23:00:26.729Z,4.40
2022-11-04T23:05:31.709Z,4.40
2022-11-04T23:10:52.293Z,3.00
2022-11-04T23:16:12.704Z,2.30
2022-11-04T23:21:37.020Z,2.80
2022-11-04T23:26:39.000Z,3.90
2022-11-04T23:31:40.979Z,3.40
2022-11-04T23:37:01.633Z,3.10
2022-11-04T23:42:18.886Z,3.40
2022-11-04T23:47:39.260Z,3.90
2022-11-04T23:52:59.555Z,4.80
2022-11-04T23:58:19.977Z,4.40
